sensor_id;sensor_type;location;lat;lon;timestamp;P1;durP1;ratioP1;P2;durP2;ratioP2
69799;SDS011;67217;51.008;4.644;2023-02-23T05:00:09;112.00;;;45.95;;
69799;SDS011;67217;51.008;4.644;2023-02-23T05:02:38;112.88;;;45.33;;
69799;SDS011;67217;51.008;4.644;2023-02-23T05:05:06;106.55;;;46.55;;
69799;SDS011;67217;51.008;4.644;2023-02-23T05:07:35;119.37;;;47.08;;
69799;SDS011;67217;51.008;4.644;2023-02-23T05:10:03;111.90;;;46.73;;
69799;SDS011;67217;51.008;4.644;2023-02-23T05:12:32;112.57;;;46.08;;
69799;SDS011;67217;51.008;4.644;2023-02-23T05:15:00;105.63;;;45.65;;
69799;SDS011;67217;51.008;4.644;2023-02-23T05:17:28;113.42;;;45.70;;
69799;SDS011;67217;51.008;4.644;2023-02-23T05:19:55;111.28;;;45.80;;
69799;SDS011;67217;51.008;4.644;2023-02-23T05:22:23;103.92;;;46.20;;
69799;SDS011;67217;51.008;4.644;2023-02-23T05:24:51;119.95;;;48.50;;
69799;SDS011;67217;51.008;4.644;2023-02-23T05:27:19;117.47;;;47.73;;
69799;SDS011;67217;51.008;4.644;2023-02-23T05:29:47;118.17;;;48.70;;
69799;SDS011;67217;51.008;4.644;2023-02-23T05:32:14;120.50;;;47.70;;
69799;SDS011;67217;51.008;4.644;2023-02-23T05:34:43;108.72;;;48.13;;
69799;SDS011;67217;51.008;4.644;2023-02-23T05:37:11;106.60;;;47.60;;
69799;SDS011;67217;51.008;4.644;2023-02-23T05:39:39;110.20;;;47.25;;
69799;SDS011;67217;51.008;4.644;2023-02-23T05:42:07;112.68;;;46.73;;
69799;SDS011;67217;51.008;4.644;2023-02-23T05:44:35;110.68;;;48.92;;
69799;SDS011;67217;51.008;4.644;2023-02-23T05:47:03;108.15;;;46.92;;
69799;SDS011;67217;51.008;4.644;2023-02-23T05:49:31;111.83;;;46.37;;
69799;SDS011;67217;51.008;4.644;2023-02-23T05:51:58;112.80;;;48.85;;
69799;SDS011;67217;51.008;4.644;2023-02-23T05:54:26;114.47;;;46.83;;
69799;SDS011;67217;51.008;4.644;2023-02-23T05:56:54;143.75;;;51.02;;
69799;SDS011;67217;51.008;4.644;2023-02-23T05:59:22;119.10;;;48.08;;
69799;SDS011;67217;51.008;4.644;2023-02-23T06:01:50;125.75;;;48.78;;
69799;SDS011;67217;51.008;4.644;2023-02-23T06:04:18;112.40;;;48.85;;
69799;SDS011;67217;51.008;4.644;2023-02-23T06:06:48;122.65;;;50.00;;
69799;SDS011;67217;51.008;4.644;2023-02-23T06:09:16;118.90;;;50.10;;
69799;SDS011;67217;51.008;4.644;2023-02-23T06:11:43;127.95;;;50.88;;
69799;SDS011;67217;51.008;4.644;2023-02-23T06:14:11;121.62;;;51.05;;
69799;SDS011;67217;51.008;4.644;2023-02-23T06:16:41;156.50;;;47.62;;
69799;SDS011;67217;51.008;4.644;2023-02-23T06:19:10;134.72;;;50.58;;
69799;SDS011;67217;51.008;4.644;2023-02-23T06:21:38;146.50;;;48.13;;
69799;SDS011;67217;51.008;4.644;2023-02-23T06:24:05;135.45;;;48.10;;
69799;SDS011;67217;51.008;4.644;2023-02-23T06:26:33;127.17;;;49.25;;
69799;SDS011;67217;51.008;4.644;2023-02-23T06:29:01;129.95;;;50.25;;
69799;SDS011;67217;51.008;4.644;2023-02-23T06:31:29;120.47;;;47.88;;
69799;SDS011;67217;51.008;4.644;2023-02-23T06:33:57;119.72;;;47.53;;
69799;SDS011;67217;51.008;4.644;2023-02-23T06:36:24;122.98;;;48.15;;
69799;SDS011;67217;51.008;4.644;2023-02-23T06:38:54;124.20;;;49.25;;
69799;SDS011;67217;51.008;4.644;2023-02-23T06:41:23;130.97;;;50.10;;
69799;SDS011;67217;51.008;4.644;2023-02-23T06:43:52;131.47;;;50.08;;
69799;SDS011;67217;51.008;4.644;2023-02-23T06:46:20;122.10;;;49.42;;
69799;SDS011;67217;51.008;4.644;2023-02-23T06:48:53;125.02;;;50.40;;
69799;SDS011;67217;51.008;4.644;2023-02-23T06:51:21;127.95;;;49.18;;
69799;SDS011;67217;51.008;4.644;2023-02-23T06:53:49;147.20;;;48.95;;
69799;SDS011;67217;51.008;4.644;2023-02-23T06:56:18;193.37;;;51.53;;
69799;SDS011;67217;51.008;4.644;2023-02-23T06:58:46;143.43;;;51.45;;
69799;SDS011;67217;51.008;4.644;2023-02-23T07:01:14;131.67;;;48.73;;
69799;SDS011;67217;51.008;4.644;2023-02-23T07:03:43;130.95;;;49.00;;
69799;SDS011;67217;51.008;4.644;2023-02-23T07:06:11;133.18;;;49.40;;
69799;SDS011;67217;51.008;4.644;2023-02-23T07:08:39;139.77;;;48.30;;
69799;SDS011;67217;51.008;4.644;2023-02-23T07:11:07;140.52;;;46.80;;
69799;SDS011;67217;51.008;4.644;2023-02-23T07:13:36;155.00;;;51.15;;
69799;SDS011;67217;51.008;4.644;2023-02-23T07:16:04;130.45;;;49.70;;
69799;SDS011;67217;51.008;4.644;2023-02-23T07:18:33;145.55;;;50.05;;
69799;SDS011;67217;51.008;4.644;2023-02-23T07:21:00;152.22;;;50.33;;
69799;SDS011;67217;51.008;4.644;2023-02-23T07:23:29;156.00;;;52.58;;
69799;SDS011;67217;51.008;4.644;2023-02-23T07:25:57;139.70;;;50.85;;
69799;SDS011;67217;51.008;4.644;2023-02-23T07:28:25;136.97;;;51.83;;
69799;SDS011;67217;51.008;4.644;2023-02-23T07:30:57;128.10;;;51.05;;
69799;SDS011;67217;51.008;4.644;2023-02-23T07:33:25;129.38;;;51.50;;
69799;SDS011;67217;51.008;4.644;2023-02-23T07:35:53;135.25;;;53.55;;
69799;SDS011;67217;51.008;4.644;2023-02-23T07:38:21;126.30;;;51.65;;
69799;SDS011;67217;51.008;4.644;2023-02-23T07:40:49;127.45;;;51.00;;
69799;SDS011;67217;51.008;4.644;2023-02-23T07:43:18;122.28;;;50.52;;
69799;SDS011;67217;51.008;4.644;2023-02-23T07:45:49;126.87;;;51.73;;
69799;SDS011;67217;51.008;4.644;2023-02-23T07:48:17;128.47;;;52.75;;
69799;SDS011;67217;51.008;4.644;2023-02-23T07:50:46;126.42;;;52.80;;
69799;SDS011;67217;51.008;4.644;2023-02-23T07:53:18;121.28;;;51.85;;
69799;SDS011;67217;51.008;4.644;2023-02-23T07:55:54;117.10;;;51.13;;
69799;SDS011;67217;51.008;4.644;2023-02-23T07:58:26;126.55;;;52.90;;
69799;SDS011;67217;51.008;4.644;2023-02-23T08:00:55;119.60;;;51.50;;
69799;SDS011;67217;51.008;4.644;2023-02-23T08:03:23;122.05;;;52.08;;
69799;SDS011;67217;51.008;4.644;2023-02-23T08:05:52;129.12;;;53.52;;
69799;SDS011;67217;51.008;4.644;2023-02-23T08:08:20;132.85;;;52.60;;
69799;SDS011;67217;51.008;4.644;2023-02-23T08:10:48;121.13;;;50.48;;
69799;SDS011;67217;51.008;4.644;2023-02-23T08:13:16;123.72;;;51.08;;
69799;SDS011;67217;51.008;4.644;2023-02-23T08:15:44;124.50;;;50.20;;
69799;SDS011;67217;51.008;4.644;2023-02-23T08:18:12;124.20;;;49.75;;
69799;SDS011;67217;51.008;4.644;2023-02-23T08:20:40;122.55;;;50.17;;
69799;SDS011;67217;51.008;4.644;2023-02-23T08:23:08;126.95;;;51.45;;
69799;SDS011;67217;51.008;4.644;2023-02-23T08:25:36;129.65;;;51.48;;
69799;SDS011;67217;51.008;4.644;2023-02-23T08:28:04;129.90;;;51.65;;
69799;SDS011;67217;51.008;4.644;2023-02-23T08:30:32;137.05;;;51.30;;
69799;SDS011;67217;51.008;4.644;2023-02-23T08:33:00;135.70;;;53.50;;
69799;SDS011;67217;51.008;4.644;2023-02-23T08:35:30;133.30;;;54.58;;
69799;SDS011;67217;51.008;4.644;2023-02-23T08:37:58;133.30;;;53.15;;
69799;SDS011;67217;51.008;4.644;2023-02-23T08:40:26;126.60;;;52.33;;
69799;SDS011;67217;51.008;4.644;2023-02-23T08:42:54;124.90;;;50.58;;
69799;SDS011;67217;51.008;4.644;2023-02-23T08:45:21;122.30;;;51.48;;
69799;SDS011;67217;51.008;4.644;2023-02-23T08:47:49;114.88;;;51.28;;
69799;SDS011;67217;51.008;4.644;2023-02-23T08:50:19;119.15;;;52.08;;
69799;SDS011;67217;51.008;4.644;2023-02-23T20:17:28;33.95;;;18.40;;
69799;SDS011;67217;51.008;4.644;2023-02-23T20:19:56;27.07;;;13.88;;
69799;SDS011;67217;51.008;4.644;2023-02-23T20:22:24;26.75;;;11.95;;
69799;SDS011;67217;51.008;4.644;2023-02-23T20:24:52;26.93;;;10.18;;
69799;SDS011;67217;51.008;4.644;2023-02-23T20:27:21;27.95;;;10.32;;
69799;SDS011;67217;51.008;4.644;2023-02-23T20:29:49;26.73;;;10.35;;
69799;SDS011;67217;51.008;4.644;2023-02-23T20:32:18;22.55;;;9.98;;
69799;SDS011;67217;51.008;4.644;2023-02-23T20:34:46;24.32;;;9.25;;
69799;SDS011;67217;51.008;4.644;2023-02-23T20:37:15;26.68;;;10.48;;
69799;SDS011;67217;51.008;4.644;2023-02-23T20:39:43;33.25;;;11.40;;
69799;SDS011;67217;51.008;4.644;2023-02-23T20:42:10;33.95;;;9.60;;
69799;SDS011;67217;51.008;4.644;2023-02-23T20:44:38;37.70;;;10.50;;
69799;SDS011;67217;51.008;4.644;2023-02-23T20:47:06;33.55;;;10.00;;
69799;SDS011;67217;51.008;4.644;2023-02-23T20:49:34;40.33;;;10.90;;
69799;SDS011;67217;51.008;4.644;2023-02-23T20:52:03;43.68;;;11.80;;
69799;SDS011;67217;51.008;4.644;2023-02-23T20:54:31;51.73;;;12.13;;
69799;SDS011;67217;51.008;4.644;2023-02-23T20:56:59;42.30;;;11.53;;
69799;SDS011;67217;51.008;4.644;2023-02-23T20:59:29;40.03;;;10.55;;
69799;SDS011;67217;51.008;4.644;2023-02-23T21:01:57;43.83;;;11.97;;
69799;SDS011;67217;51.008;4.644;2023-02-23T21:04:26;54.08;;;11.88;;
69799;SDS011;67217;51.008;4.644;2023-02-23T21:06:54;45.20;;;10.40;;
69799;SDS011;67217;51.008;4.644;2023-02-23T21:09:22;53.70;;;10.72;;
69799;SDS011;67217;51.008;4.644;2023-02-23T21:11:49;51.23;;;12.98;;
69799;SDS011;67217;51.008;4.644;2023-02-23T21:14:17;41.77;;;11.68;;
69799;SDS011;67217;51.008;4.644;2023-02-23T21:16:46;43.38;;;11.28;;
69799;SDS011;67217;51.008;4.644;2023-02-23T21:19:14;51.35;;;10.93;;
69799;SDS011;67217;51.008;4.644;2023-02-23T21:21:50;49.70;;;11.70;;
69799;SDS011;67217;51.008;4.644;2023-02-23T21:24:15;41.28;;;11.03;;
69799;SDS011;67217;51.008;4.644;2023-02-23T21:26:44;47.50;;;12.18;;
69799;SDS011;67217;51.008;4.644;2023-02-23T21:29:12;54.23;;;12.88;;
69799;SDS011;67217;51.008;4.644;2023-02-23T21:31:41;48.80;;;12.50;;
69799;SDS011;67217;51.008;4.644;2023-02-23T21:34:11;40.65;;;11.97;;
69799;SDS011;67217;51.008;4.644;2023-02-23T21:36:40;51.42;;;12.10;;
69799;SDS011;67217;51.008;4.644;2023-02-23T21:39:08;49.90;;;12.28;;
69799;SDS011;67217;51.008;4.644;2023-02-23T21:41:36;46.20;;;11.60;;
69799;SDS011;67217;51.008;4.644;2023-02-23T21:44:05;51.48;;;12.53;;
69799;SDS011;67217;51.008;4.644;2023-02-23T21:46:33;45.70;;;11.85;;
69799;SDS011;67217;51.008;4.644;2023-02-23T21:49:01;43.60;;;10.43;;
69799;SDS011;67217;51.008;4.644;2023-02-23T21:51:31;44.98;;;11.48;;
69799;SDS011;67217;51.008;4.644;2023-02-23T21:54:01;45.48;;;11.95;;
69799;SDS011;67217;51.008;4.644;2023-02-23T21:56:29;36.45;;;10.78;;
69799;SDS011;67217;51.008;4.644;2023-02-23T21:58:58;30.90;;;9.93;;
69799;SDS011;67217;51.008;4.644;2023-02-23T22:01:27;23.75;;;9.13;;
69799;SDS011;67217;51.008;4.644;2023-02-23T22:03:59;31.25;;;9.15;;
69799;SDS011;67217;51.008;4.644;2023-02-23T22:06:28;26.73;;;8.35;;
69799;SDS011;67217;51.008;4.644;2023-02-23T22:08:58;30.17;;;8.53;;
69799;SDS011;67217;51.008;4.644;2023-02-23T22:11:26;31.87;;;8.35;;
69799;SDS011;67217;51.008;4.644;2023-02-23T22:13:59;34.50;;;7.90;;
69799;SDS011;67217;51.008;4.644;2023-02-23T22:16:27;31.82;;;7.80;;
69799;SDS011;67217;51.008;4.644;2023-02-23T22:18:55;30.10;;;7.90;;
69799;SDS011;67217;51.008;4.644;2023-02-23T22:21:25;34.18;;;7.78;;
69799;SDS011;67217;51.008;4.644;2023-02-23T22:23:54;30.20;;;7.70;;
69799;SDS011;67217;51.008;4.644;2023-02-23T22:26:22;30.92;;;7.55;;
69799;SDS011;67217;51.008;4.644;2023-02-23T22:28:50;30.62;;;7.25;;
69799;SDS011;67217;51.008;4.644;2023-02-23T22:31:18;27.58;;;6.70;;
69799;SDS011;67217;51.008;4.644;2023-02-23T22:33:46;28.45;;;6.72;;
69799;SDS011;67217;51.008;4.644;2023-02-23T22:36:15;22.13;;;5.72;;
69799;SDS011;67217;51.008;4.644;2023-02-23T22:38:43;28.62;;;5.35;;
69799;SDS011;67217;51.008;4.644;2023-02-23T22:41:11;23.12;;;5.20;;
69799;SDS011;67217;51.008;4.644;2023-02-23T22:43:40;31.20;;;5.70;;
69799;SDS011;67217;51.008;4.644;2023-02-23T22:46:13;31.60;;;5.28;;
69799;SDS011;67217;51.008;4.644;2023-02-23T22:48:42;27.82;;;4.90;;
69799;SDS011;67217;51.008;4.644;2023-02-23T22:51:11;23.92;;;4.72;;
69799;SDS011;67217;51.008;4.644;2023-02-23T22:53:40;23.80;;;4.05;;
69799;SDS011;67217;51.008;4.644;2023-02-23T22:56:10;31.68;;;4.80;;
69799;SDS011;67217;51.008;4.644;2023-02-23T22:58:38;32.17;;;5.30;;
69799;SDS011;67217;51.008;4.644;2023-02-23T23:01:08;28.90;;;4.60;;
69799;SDS011;67217;51.008;4.644;2023-02-23T23:03:40;22.62;;;4.60;;
69799;SDS011;67217;51.008;4.644;2023-02-23T23:06:13;33.08;;;4.92;;
69799;SDS011;67217;51.008;4.644;2023-02-23T23:08:44;39.30;;;5.10;;
69799;SDS011;67217;51.008;4.644;2023-02-23T23:11:14;30.53;;;5.03;;
69799;SDS011;67217;51.008;4.644;2023-02-23T23:13:48;33.58;;;5.42;;
69799;SDS011;67217;51.008;4.644;2023-02-23T23:16:17;31.40;;;5.25;;
69799;SDS011;67217;51.008;4.644;2023-02-23T23:18:53;28.77;;;5.12;;
69799;SDS011;67217;51.008;4.644;2023-02-23T23:21:24;32.60;;;6.53;;
69799;SDS011;67217;51.008;4.644;2023-02-23T23:23:54;32.85;;;6.35;;
69799;SDS011;67217;51.008;4.644;2023-02-23T23:26:24;27.95;;;6.20;;
69799;SDS011;67217;51.008;4.644;2023-02-23T23:28:56;35.90;;;7.62;;
69799;SDS011;67217;51.008;4.644;2023-02-23T23:31:26;36.73;;;5.70;;
69799;SDS011;67217;51.008;4.644;2023-02-23T23:33:55;33.10;;;6.22;;
69799;SDS011;67217;51.008;4.644;2023-02-23T23:36:33;35.35;;;7.28;;
69799;SDS011;67217;51.008;4.644;2023-02-23T23:38:58;33.28;;;6.50;;
69799;SDS011;67217;51.008;4.644;2023-02-23T23:41:28;34.53;;;6.58;;
69799;SDS011;67217;51.008;4.644;2023-02-23T23:44:01;38.40;;;7.08;;
69799;SDS011;67217;51.008;4.644;2023-02-23T23:46:36;31.00;;;7.30;;
69799;SDS011;67217;51.008;4.644;2023-02-23T23:49:06;34.18;;;6.80;;
69799;SDS011;67217;51.008;4.644;2023-02-23T23:51:37;38.25;;;6.40;;
69799;SDS011;67217;51.008;4.644;2023-02-23T23:54:08;36.58;;;7.53;;
69799;SDS011;67217;51.008;4.644;2023-02-23T23:56:36;33.25;;;6.55;;
69799;SDS011;67217;51.008;4.644;2023-02-23T23:59:06;28.45;;;5.17;;
